»·PEaware :: N45XS KPSP-KLAX

N45XS :: KPSP-KLAX

FLIGHT INFORMATION

Flight Status: Arrived
Operator: Privately registered:
United States
More flights under this callsign
Pilot: Alfonso U. (14209)
Aircraft: BEECH AIRCRAFT BARON
(BE58)
More flights by this aircraft type
Origin: KPSP Palm Springs Intl
United States
Destination: KLAX Los Angeles Intl
United States
More flights between these airports :: More routes between these airports
Route: +CATH1 PSP V388 PDZ V16 LAHAB
File this flight plan on PilotEdge
Remarks: TEC route PSPN10A
Altitude:
(Current/Filed)
10,000ft
Speed:
(Current/Filed)
200kts
Departed: 20-Sep-17 10:05 AM
Arrived: 20-Sep-17 10:56 AM
Distance/Time
Traveled:
94nm/0:51
Distance/Time
To Go:
Arrived

Flight Plot

Page will automatically refresh every two minutes.


Map Options




Map Legend


Flown Route
Filed Route
Departure Airport
Arrival Airport
Navaid (VOR, NDB)
Fix

Horizontal Profiles

Position Reports

Time Latitude Longitude Heading Altitude Ground
Speed
20-Sep-17 09:49 33.824172 -116.499059 55 398ft 0kts
20-Sep-17 09:50 33.824172 -116.499059 55 398ft 0kts
20-Sep-17 09:51 33.824172 -116.499059 55 398ft 0kts
20-Sep-17 09:52 33.824172 -116.499059 55 398ft 0kts
20-Sep-17 09:53 33.824172 -116.499059 55 398ft 0kts
20-Sep-17 09:54 33.824172 -116.499059 55 398ft 0kts
20-Sep-17 09:55 33.824172 -116.499059 55 398ft 0kts
20-Sep-17 09:56 33.824172 -116.499059 55 398ft 0kts
20-Sep-17 09:57 33.824172 -116.499059 55 398ft 0kts
20-Sep-17 09:58 33.824172 -116.499059 55 398ft 0kts
20-Sep-17 09:59 33.824246 -116.499068 326 398ft 1kts
20-Sep-17 10:00 33.824578 -116.499697 232 400ft 0kts
20-Sep-17 10:01 33.824578 -116.499697 232 400ft 0kts
20-Sep-17 10:02 33.824578 -116.499697 232 400ft 0kts
20-Sep-17 10:03 33.824578 -116.499697 232 400ft 0kts
20-Sep-17 10:04 33.824578 -116.499697 232 400ft 0kts
20-Sep-17 10:05 33.824578 -116.499697 232 400ft 0kts
20-Sep-17 10:06 33.824578 -116.499697 232 400ft 0kts
20-Sep-17 10:07 33.824578 -116.499697 232 400ft 0kts
20-Sep-17 10:08 33.824536 -116.499762 232 400ft 4kts
20-Sep-17 10:09 33.838406 -116.512828 326 936ft 114kts
20-Sep-17 10:10 33.863952 -116.535491 328 2581ft 125kts
20-Sep-17 10:11 33.890279 -116.562155 323 3826ft 127kts
20-Sep-17 10:12 33.896415 -116.536160 112 4739ft 127kts
20-Sep-17 10:13 33.884672 -116.499176 105 5546ft 128kts
20-Sep-17 10:14 33.873649 -116.457247 96 6165ft 128kts
20-Sep-17 10:15 33.870496 -116.416438 57 6780ft 126kts
20-Sep-17 10:16 33.890418 -116.431759 263 7323ft 138kts
20-Sep-17 10:17 33.883968 -116.473512 261 7835ft 140kts
20-Sep-17 10:18 33.889341 -116.515380 291 8837ft 136kts
20-Sep-17 10:19 33.900134 -116.555111 292 9717ft 139kts
20-Sep-17 10:20 33.912057 -116.601023 289 10104ft 165kts
20-Sep-17 10:21 33.925721 -116.656257 287 10092ft 175kts
20-Sep-17 10:22 33.939326 -116.712273 288 10087ft 173kts
20-Sep-17 10:23 33.951488 -116.766921 268 10083ft 167kts
20-Sep-17 10:24 33.948950 -116.821124 272 10083ft 157kts
20-Sep-17 10:25 33.947879 -116.872086 270 10075ft 147kts
20-Sep-17 10:26 33.946323 -116.918123 269 9793ft 152kts
20-Sep-17 10:27 33.944450 -116.964783 270 9363ft 160kts
20-Sep-17 10:28 33.942247 -117.016555 268 8950ft 164kts
20-Sep-17 10:29 33.940357 -117.063458 280 9440ft 116kts
20-Sep-17 10:30 33.943849 -117.099319 267 9609ft 119kts
20-Sep-17 10:31 33.940577 -117.136554 272 9766ft 122kts
20-Sep-17 10:32 33.939245 -117.173044 264 9831ft 137kts
20-Sep-17 10:33 33.935294 -117.212515 267 9891ft 143kts
20-Sep-17 10:34 33.932430 -117.252665 268 9949ft 143kts
20-Sep-17 10:35 33.929768 -117.299645 268 9408ft 170kts
20-Sep-17 10:36 33.927008 -117.352864 269 9023ft 171kts
20-Sep-17 10:37 33.924407 -117.404555 268 9030ft 169kts
20-Sep-17 10:38 33.921916 -117.455643 268 9033ft 175kts
20-Sep-17 10:39 33.919274 -117.508242 268 9033ft 183kts
20-Sep-17 10:40 33.916606 -117.560795 268 9023ft 168kts
20-Sep-17 10:41 33.918963 -117.613772 275 8442ft 184kts
20-Sep-17 10:42 33.921049 -117.669999 272 7529ft 188kts
20-Sep-17 10:43 33.922392 -117.727719 273 6617ft 189kts
20-Sep-17 10:44 33.923689 -117.784739 273 5998ft 176kts
20-Sep-17 10:45 33.924751 -117.834650 273 5995ft 160kts
20-Sep-17 10:46 33.929309 -117.882150 281 5998ft 156kts
20-Sep-17 10:47 33.935513 -117.928011 280 5998ft 156kts
20-Sep-17 10:48 33.941729 -117.973485 281 5997ft 156kts
20-Sep-17 10:49 33.948060 -118.008439 281 5682ft 174kts
20-Sep-17 10:50 33.959556 -118.061502 281 4632ft 181kts
20-Sep-17 10:51 33.964578 -118.109026 266 3991ft 160kts
20-Sep-17 10:52 33.962127 -118.143268 277 3634ft 135kts
20-Sep-17 10:53 33.958922 -118.174111 261 3462ft 99kts
20-Sep-17 10:54 33.956016 -118.205713 272 2900ft 131kts
20-Sep-17 10:55 33.952444 -118.243811 258 2334ft 138kts
20-Sep-17 10:56 33.947289 -118.283430 263 1813ft 131kts
20-Sep-17 10:57 33.943394 -118.321497 265 1234ft 135kts
20-Sep-17 10:58 33.939362 -118.360335 263 472ft 125kts
20-Sep-17 10:59 33.937114 -118.384812 262 96ft 93kts
20-Sep-17 11:00 33.935445 -118.393749 180 100ft 3kts
20-Sep-17 11:01 33.935106 -118.391599 84 99ft 19kts
20-Sep-17 11:02 33.935908 -118.384657 79 96ft 24kts
20-Sep-17 11:03 33.933895 -118.382157 229 93ft 0kts
20-Sep-17 11:04 33.933895 -118.382157 229 93ft 0kts
20-Sep-17 11:05 33.933895 -118.382157 229 93ft 0kts
20-Sep-17 11:06 33.933895 -118.382157 229 93ft 0kts
20-Sep-17 11:07 33.933895 -118.382157 229 93ft 0kts
20-Sep-17 11:08 33.933895 -118.382157 229 93ft 0kts
20-Sep-17 11:09 33.933895 -118.382157 229 93ft 0kts
20-Sep-17 11:10 33.933895 -118.382157 229 93ft 0kts
20-Sep-17 11:11 33.933895 -118.382157 229 93ft 0kts
20-Sep-17 11:12 33.933895 -118.382157 229 93ft 0kts
20-Sep-17 11:13 33.933895 -118.382157 229 93ft 0kts
20-Sep-17 11:14 33.933895 -118.382157 229 93ft 0kts

Navigation Log

Ident Type
1. KPSP Airport
2. PSP Navaid
3. DEWAY Fix
4. ACINS Fix
5. LENHO Fix
6. KNDAL Fix
7. PDZ Navaid
8. WISUP Fix
9. PRADO Fix
10. LAHAB Fix
11. KLAX Airport